WEATHER DATA

YESTERDAY
Time Temp. Dewp. Hum. Wind dir Wind speed Wind gust Bar. 1h Prec. 24h Prec.
00:02 17.3 13.4 78 0 0 1014.2 0.0000 0.0000
00:12 17.2 13.5 79 0 0 1014 0.0000 0.0000
00:22 17 13.3 79 0 0 1013.9 0.0000 0.0000
00:32 16.8 13.3 80 0 0 1013.9 0.0000 0.0000
00:42 16.8 13.3 80 0 0 1013.9 0.0000 0.0000
00:52 16.7 13.2 80 0 0 1013.7 0.0000 0.0000
01:02 16.6 13.1 80 0 0 1013.8 0.0000 0.0000
01:12 16.5 13.2 81 0 0 1013.6 0.0000 0.0000
01:22 16.4 13.1 81 0 0 1013.6 0.0000 0.0000
01:33 16.3 13.2 82 0 0 1013.6 0.0000 0.0000
01:42 16.1 13 82 0 0 1013.5 0.0000 0.0000
01:52 16 13.1 83 0 0 1013.4 0.0000 0.0000
02:02 16 13.1 83 0 0 1013.2 0.0000 0.0000
02:13 16 13.1 83 0 0 1013.2 0.0000 0.0000
02:22 16 13.1 83 0 0 1013.2 0.0000 0.0000
02:32 16 13.1 83 0 0 1013.1 0.0000 0.0000
02:43 16.1 13.2 83 0 0 1013 0.0000 0.0000
02:53 16.1 13.2 83 0 0 1012.8 0.0000 0.0000
03:02 16 13.1 83 0 0 1012.7 0.0000 0.0000
03:12 16 13.1 83 0 0 1012.7 0.0000 0.0000
03:23 16 13.3 84 0 0 1012.6 0.0000 0.0000
03:32 16 13.1 83 0 0 1012.5 0.0000 0.0000
03:42 16 13.3 84 0 0 1012.5 0.0000 0.0000
03:53 16.1 13.4 84 0 0 1012.4 0.0000 0.0000
04:00 16.1 13.4 84 0 0 1012.4 0.0000 0.0000
04:11 16.1 13.6 85 0 0 1012.5 0.0000 0.0000
04:20 16.2 13.7 85 0 0 1012.4 0.0000 0.0000
04:30 16.2 13.5 84 0 0 1012.3 0.0000 0.0000
04:40 16.2 13.5 84 0 0 1012.2 0.0000 0.0000
04:51 16.2 13.7 85 0 0 1012.1 0.0000 0.0000
05:00 16.1 13.4 84 0 0 1012 0.0000 0.0000
05:10 16.1 13.6 85 0 0 1011.8 0.0000 0.0000
05:21 16 13.5 85 0 0 1011.8 0.0000 0.0000
05:31 16 13.5 85 0 0 1011.5 0.0000 0.0000
05:40 16 13.7 86 0 0 1011.6 0.0000 0.0000
05:51 15.9 13.4 85 0 0 1011.5 0.0000 0.0000
06:01 15.9 13.6 86 0 0 1011.8 0.0000 0.0000
06:10 16 13.7 86 0 0 1011.7 0.0000 0.0000
06:20 16 13.7 86 0 0 1011.6 0.0000 0.0000
06:31 16.1 13.8 86 0 0 1012 0.0000 0.0000
06:41 16.2 13.9 86 0 0 1011.8 0.0000 0.0000
06:50 16.2 13.9 86 0 0 1011.8 0.0000 0.0000
07:01 16.3 14 86 0 0 1011.9 0.0000 0.0000
07:11 16.4 14.1 86 0 0 1011.6 0.0000 0.0000
07:21 16.4 14.2 87 0 0 1011.6 0.0000 0.0000
07:30 16.5 14.3 87 0 0 1011.6 0.0000 0.0000
07:41 16.6 14.4 87 0 0 1011.8 0.0000 0.0000
07:51 16.7 14.5 87 0 0 1011.9 0.0000 0.0000
08:01 16.8 14.6 87 0 0 1011.9 0.0000 0.0000
08:11 17.1 14.7 86 0 0 1011.9 0.0000 0.0000
08:21 17.3 14.9 86 0 0 1012 0.0000 0.0000
08:29 17.5 15.1 86 0 0 1012 0.0000 0.0000
08:32 17.5 15.1 86 0 0 1012.3 0.0000 0.0000
09:10 18.4 15.3 82 0 0 1012.5 0.0000 0.0000
09:19 18.6 15.3 81 0 0 1012.6 0.0000 0.0000
09:29 18.7 15.8 83 0 0 1012.5 0.0000 0.0000
09:40 18.7 15.6 82 0 0 1012.8 0.1010 0.1000
09:49 18.7 15.8 83 0 0 1012.8 0.3030 0.3000
09:59 18.6 16 85 0 0 1012.9 0.3030 0.3000
10:09 18.5 16.3 87 0 0 1012.7 0.3030 0.3000
10:19 18.4 16.2 87 0 0 1012.5 0.5050 0.5000
10:29 18.3 16.3 88 0 0 1012.5 0.6060 0.6000
10:39 18.3 16.3 88 0 0 1012.7 0.7070 0.8000
10:49 18.3 16.5 89 0 0 1012.5 0.5050 0.8000
10:59 18.4 16.7 90 0 0 1012.8 0.5050 0.8000
11:09 18.6 16.9 90 0 0 1012.7 0.5050 0.8000
11:18 18.9 17.2 90 0 0 1012.7 0.3030 0.8000
11:28 19.1 17.1 88 0 0 1012.5 0.2020 0.8000
11:38 19.3 17.1 87 0 0 1012.8 0.0000 0.8000
11:48 19.5 16.9 85 0 0 1012.4 0.0000 0.8000
11:58 19.8 17 84 0 0 1012.5 0.0000 0.8000
12:07 20 17 83 0 0 1012.5 0.0000 0.8000
12:18 20.2 17 82 0 0 1012.5 0.0000 0.8000
12:28 20.3 17.1 82 0 0 1012.3 0.0000 0.8000
12:38 20.4 17.2 82 0 0 1012.1 0.0000 0.8000
12:48 20.5 16.9 80 0 0 1011.9 0.0000 0.8000
12:58 20.7 16.7 78 0 0 1012.1 0.0000 0.8000
13:08 20.8 16.6 77 0 0 1012.1 0.0000 0.8000
13:18 20.9 16.3 75 0 0 1012.1 0.0000 0.8000
13:28 20.9 16.1 74 0 0 1012 0.0000 0.8000
13:38 21.1 16.1 73 0 0 1011.8 0.0000 0.8000
13:48 21.2 16.2 73 0 0 1011.8 0.0000 0.8000
13:58 21.4 16.4 73 0 0 1011.7 0.0000 0.8000
14:08 21.7 16.2 71 0 0 1011.8 0.0000 0.8000
14:18 22 16.1 69 0 0 1011.6 0.0000 0.8000
14:28 22.3 16.1 68 0 0 1011.6 0.0000 0.8000
14:38 22.5 16.1 67 0 0 1011.3 0.0000 0.8000
14:48 22.5 16.1 67 0 0 1011.4 0.0000 0.8000
14:58 22.5 16.1 67 0 0 1011.4 0.0000 0.8000
15:09 22.5 16.3 68 0 0 1011.5 0.0000 0.8000
15:18 22.4 16 67 0 0 1011.6 0.0000 0.8000
15:28 22.3 15.9 67 0 0 1011.5 0.0000 0.8000
15:38 22.1 15.9 68 0 0 1011.7 0.0000 0.8000
15:49 22 16.1 69 0 0 1011.9 0.0000 0.8000
15:58 21.9 15.5 67 0 0 1011.9 0.0000 0.8000
16:08 21.7 15.3 67 0 0 1012 0.0000 0.8000
16:19 21.4 16.6 74 0 0 1012.1 0.0000 0.8000
16:28 21.1 16.1 73 0 0 1012.1 0.0000 0.8000
16:38 20.7 16.1 75 0 0 1012.3 0.0000 0.8000
16:49 20.6 16 75 0 0 1012 0.0000 0.8000
16:59 20.5 16.1 76 0 0 1011.9 0.0000 0.8000
17:08 20.4 16 76 0 0 1012 0.0000 0.8000
17:18 20.4 16.2 77 0 0 1011.9 0.0000 0.8000
17:29 20.4 16.2 77 0 0 1011.8 0.0000 0.8000
17:39 20.5 16.5 78 0 0 1011.6 0.0000 0.8000
17:48 20.5 16.1 76 0 0 1011.5 0.0000 0.8000
17:59 20.6 16 75 0 0 1011.4 0.0000 0.8000
18:09 20.7 15.9 74 0 0 1011.6 0.0000 0.8000
18:18 20.7 16.1 75 0 0 1011.6 0.0000 0.8000
18:28 20.7 16.1 75 0 0 1011.8 0.0000 0.8000
18:39 20.7 16.3 76 0 0 1011.7 0.0000 0.8000
18:49 20.6 16.8 79 0 0 1011.6 0.0000 0.8000
18:58 20.5 16.7 79 0 0 1011.8 0.0000 0.8000
19:09 20.3 16.7 80 0 0 1012 0.1010 0.9000
19:19 20.2 16.8 81 0 0 1012 0.1010 0.9000
19:29 20 17 83 0 0 1011.8 0.1010 0.9000
19:39 19.8 17 84 0 0 1012.2 0.1010 0.9000
19:49 19.7 17.1 85 0 0 1012.2 0.1010 0.9000
19:59 19.5 16.9 85 0 0 1012.1 0.1010 0.9000
20:09 19.3 16.9 86 0 0 1011.9 0.1010 1.0000
20:19 19.2 16.8 86 0 0 1012.1 0.1010 1.0000
20:29 18.9 16.7 87 0 0 1012.1 0.2020 1.1000
20:39 18.8 16.9 89 0 0 1012.1 0.2020 1.1000
20:48 18.7 16.9 89 0 0 1012 0.4040 1.3000
20:58 18.5 16.8 90 0 0 1011.8 0.4040 1.3000
21:07 18.4 16.7 90 0 0 1011.7 0.3030 1.3000
21:18 18.2 16.5 90 0 0 1011.6 0.3030 1.3000
21:28 18.2 16.7 91 0 0 1011.6 0.2020 1.3000
21:38 18.1 16.6 91 0 0 1011.7 0.2020 1.3000
21:48 18.1 16.6 91 0 0 1011.5 0.0000 1.3000
21:58 18.1 16.6 91 0 0 1011.9 0.0000 1.3000
22:08 18.1 16.6 91 0 0 1011.7 0.0000 1.3000
22:18 18.1 16.6 91 0 0 1011.8 0.0000 1.3000
22:29 18 16.5 91 0 0 1011.6 0.0000 1.3000
22:38 18 16.5 91 0 0 1011.5 0.0000 1.3000
22:48 18 16.5 91 0 0 1011.6 0.0000 1.3000
22:58 18 16.5 91 0 0 1011.4 0.0000 1.3000
23:09 17.9 16.4 91 0 0 1011.3 0.0000 1.3000
23:18 17.9 16.4 91 0 0 1011 0.0000 1.3000
23:28 17.8 16.3 91 0 0 1011.1 0.0000 1.3000
23:39 17.8 16.3 91 0 0 1010.9 0.0000 1.3000
23:49 17.8 16.3 91 0 0 1010.9 0.0000 1.3000
23:58 17.8 16.3 91 0 0 1010.8 0.0000

DAY STATISTIC

2019-08-17
TEMPERATURE
AVERAGE
18.5
HIGH
22.5
14:38
LOW
15.9
05:51
PRESSURE
AVERAGE
1012.2
HIGH
1014.2
00:02
LOW
1010.8
23:58
DEWPOINT
AVERAGE
15.4
HIGH
17.2
11:18
LOW
13.0
01:42
HUMIDITY
AVERAGE
82
HIGH
91
21:28
LOW
67
14:38
WIND SPEED
AVERAGE
0.0
HIGH
0.0
15:54
WIND GUST
AVERAGE
0.0
HIGH
0.0
15:54
WIND DIRECTION
PREVAILING
%
PRECIPITATION
RAIN HOUR
0.7
RAIN DAY
1.3
TEMPERATURE (°C)
LOW
15.9
HIGH
22.5
AVERAGE
18.5
PRESSURE (hpa)
LOW
1010.8
HIGH
1014.2
AVERAGE
1012.2
DEVICE